Airfield :
LOGIN :

Register | Disclaimer

   EN    FR    IT 

 










Legend :    VFR   Marginal VFR   IFR   Intensive IFR   Very Intensive IFR
Visi :
Ceiling :
>= 8 km
>= 3000ft
5 to 8 km
1000 to 3000 ft
1500m to 5 km
500 to 1000 ft
800 to 1500m
200 to 500 ft
< 800m
< 200 ft
Symbols :   Thunderstorms  Fog  Heavy snow  Heavy precipitations  Wind > 20 kt
SIGMETs :     Misc.  Thunderstorms  Icing  Turbulence  Mountain Waves  Volcanic Ashes






- Airport Elevation : 117 ft
- IATA code : NWI


EGSH - Norwich

CURRENT METAR :
  • 022150Z AUTO 33001KT 9999 NCD 13/07 Q1014

EXPIRED METARs :
  • 022120Z AUTO 32002KT 9999 NCD 14/07 Q1014
  • 022050Z AUTO 35002KT 9999 NCD 15/07 Q1014
  • 022020Z AUTO 36002KT 9999 NCD 16/07 Q1014
  • 021950Z AUTO VRB03KT 9999 NCD 16/07 Q1015
  • 021920Z AUTO 02004KT 9999 NCD 17/07 Q1015

TAF TAF EGSH
Valid from the 02 at 21:00 until the 03 at 06:00 UTC


021953Z 0221/0306 35005KT CAVOK
ATIS : +44 1603 420 640



MET'MAP, your aeronautical weather chart ! - Copyright ORBIFLY December 2007 - Disclaimer

ORBIFLY MET'MAP TEAM :

Programming & Development : Alexandra Zaïnal
Concept & original design : Baudouin d'Aumeries
Assistance for programming : Marc-Olivier Méhu
Technical & hardware support : Manuel Goepfert

Contact : metmap@orbifly.com




SOURCES & CREDITS :

   NOAA